sensor_id;sensor_type;location;lat;lon;timestamp;pressure;altitude;pressure_sealevel;temperature;humidity
63691;BME280;49837;57.280;27.070;2023-03-13T00:00:36;98968.12;;;-6.25;92.15
63691;BME280;49837;57.280;27.070;2023-03-13T00:01:39;98970.42;;;-6.32;91.67
63691;BME280;49837;57.280;27.070;2023-03-13T00:02:37;98970.36;;;-6.36;91.86
63691;BME280;49837;57.280;27.070;2023-03-13T00:03:38;98971.09;;;-6.39;91.98
63691;BME280;49837;57.280;27.070;2023-03-13T00:04:38;98967.97;;;-6.41;92.21
63691;BME280;49837;57.280;27.070;2023-03-13T00:05:38;98971.13;;;-6.42;92.47
63691;BME280;49837;57.280;27.070;2023-03-13T00:06:39;98975.03;;;-6.42;92.36
63691;BME280;49837;57.280;27.070;2023-03-13T00:07:39;98974.8;;;-6.49;92.07
63691;BME280;49837;57.280;27.070;2023-03-13T00:08:40;98977.72;;;-6.53;92.0
63691;BME280;49837;57.280;27.070;2023-03-13T00:09:40;98981.0;;;-6.59;92.23
63691;BME280;49837;57.280;27.070;2023-03-13T00:10:41;98983.7;;;-6.63;92.09
63691;BME280;49837;57.280;27.070;2023-03-13T00:11:41;98985.55;;;-6.64;92.04
63691;BME280;49837;57.280;27.070;2023-03-13T00:12:41;98983.34;;;-6.65;91.91
63691;BME280;49837;57.280;27.070;2023-03-13T00:13:42;98980.28;;;-6.67;92.11
63691;BME280;49837;57.280;27.070;2023-03-13T00:14:42;98982.62;;;-6.68;92.28
63691;BME280;49837;57.280;27.070;2023-03-13T00:15:42;98980.28;;;-6.71;92.13
63691;BME280;49837;57.280;27.070;2023-03-13T00:16:43;98983.86;;;-6.67;92.43
63691;BME280;49837;57.280;27.070;2023-03-13T00:17:43;98985.38;;;-6.69;91.77
63691;BME280;49837;57.280;27.070;2023-03-13T00:18:48;98981.94;;;-6.66;92.11
63691;BME280;49837;57.280;27.070;2023-03-13T00:19:46;98988.79;;;-6.59;92.47
63691;BME280;49837;57.280;27.070;2023-03-13T00:20:47;98983.19;;;-6.68;92.27
63691;BME280;49837;57.280;27.070;2023-03-13T00:21:47;98981.2;;;-6.7;92.28
63691;BME280;49837;57.280;27.070;2023-03-13T00:22:47;98981.66;;;-6.76;91.88
63691;BME280;49837;57.280;27.070;2023-03-13T00:23:48;98979.89;;;-6.79;92.35
63691;BME280;49837;57.280;27.070;2023-03-13T00:24:48;98980.12;;;-6.8;92.42
63691;BME280;49837;57.280;27.070;2023-03-13T00:25:55;98985.05;;;-6.81;92.54
63691;BME280;49837;57.280;27.070;2023-03-13T00:26:54;98985.38;;;-6.77;92.83
63691;BME280;49837;57.280;27.070;2023-03-13T00:27:53;98983.47;;;-6.81;92.62
63691;BME280;49837;57.280;27.070;2023-03-13T00:28:54;98985.44;;;-6.85;92.51
63691;BME280;49837;57.280;27.070;2023-03-13T00:29:54;98986.05;;;-6.87;92.56
63691;BME280;49837;57.280;27.070;2023-03-13T00:31:56;98985.16;;;-6.95;92.61
63691;BME280;49837;57.280;27.070;2023-03-13T00:32:56;98988.73;;;-7.02;92.41
63691;BME280;49837;57.280;27.070;2023-03-13T00:34:01;98987.79;;;-7.04;92.35
63691;BME280;49837;57.280;27.070;2023-03-13T00:34:58;98985.88;;;-7.07;92.25
63691;BME280;49837;57.280;27.070;2023-03-13T00:36:00;98987.27;;;-7.09;92.92
63691;BME280;49837;57.280;27.070;2023-03-13T00:36:59;98991.44;;;-7.12;93.3
63691;BME280;49837;57.280;27.070;2023-03-13T00:37:59;98985.39;;;-7.13;93.49
63691;BME280;49837;57.280;27.070;2023-03-13T00:39:01;98988.29;;;-7.15;93.26
63691;BME280;49837;57.280;27.070;2023-03-13T00:40:00;98988.2;;;-7.11;93.33
63691;BME280;49837;57.280;27.070;2023-03-13T00:41:03;98988.91;;;-7.16;93.2
63691;BME280;49837;57.280;27.070;2023-03-13T00:42:01;98995.59;;;-7.18;93.17
63691;BME280;49837;57.280;27.070;2023-03-13T00:43:01;98991.56;;;-7.17;93.13
63691;BME280;49837;57.280;27.070;2023-03-13T00:44:02;98994.19;;;-7.19;92.97
63691;BME280;49837;57.280;27.070;2023-03-13T00:45:03;98991.64;;;-7.24;93.08
63691;BME280;49837;57.280;27.070;2023-03-13T00:46:03;98993.56;;;-7.25;92.84
63691;BME280;49837;57.280;27.070;2023-03-13T00:47:03;99000.23;;;-7.24;93.17
63691;BME280;49837;57.280;27.070;2023-03-13T00:48:04;98994.2;;;-7.25;93.23
63691;BME280;49837;57.280;27.070;2023-03-13T00:49:04;98996.28;;;-7.2;93.43
63691;BME280;49837;57.280;27.070;2023-03-13T00:50:05;98994.14;;;-7.21;93.48
63691;BME280;49837;57.280;27.070;2023-03-13T00:51:05;98992.06;;;-7.2;93.83
63691;BME280;49837;57.280;27.070;2023-03-13T00:52:05;98990.38;;;-7.23;93.9
63691;BME280;49837;57.280;27.070;2023-03-13T00:53:05;98988.69;;;-7.22;94.01
63691;BME280;49837;57.280;27.070;2023-03-13T00:54:05;99000.31;;;-7.24;94.11
63691;BME280;49837;57.280;27.070;2023-03-13T00:55:06;99000.27;;;-7.26;93.84
63691;BME280;49837;57.280;27.070;2023-03-13T00:56:11;99000.38;;;-7.28;93.87
63691;BME280;49837;57.280;27.070;2023-03-13T00:57:08;99003.52;;;-7.32;93.86
63691;BME280;49837;57.280;27.070;2023-03-13T00:58:09;99003.23;;;-7.35;93.53
63691;BME280;49837;57.280;27.070;2023-03-13T00:59:09;99000.94;;;-7.36;93.5
63691;BME280;49837;57.280;27.070;2023-03-13T01:00:10;98998.81;;;-7.37;93.49
63691;BME280;49837;57.280;27.070;2023-03-13T01:01:15;98997.09;;;-7.39;93.74
63691;BME280;49837;57.280;27.070;2023-03-13T01:02:12;98999.87;;;-7.4;93.86
63691;BME280;49837;57.280;27.070;2023-03-13T01:03:13;98996.52;;;-7.41;93.95
63691;BME280;49837;57.280;27.070;2023-03-13T01:04:13;98994.19;;;-7.45;93.86
63691;BME280;49837;57.280;27.070;2023-03-13T01:05:14;98995.17;;;-7.43;93.86
63691;BME280;49837;57.280;27.070;2023-03-13T01:06:16;98997.61;;;-7.44;93.9
63691;BME280;49837;57.280;27.070;2023-03-13T01:07:14;98996.75;;;-7.45;93.83
63691;BME280;49837;57.280;27.070;2023-03-13T01:08:15;98995.73;;;-7.48;93.64
63691;BME280;49837;57.280;27.070;2023-03-13T01:09:16;98999.88;;;-7.43;93.88
63691;BME280;49837;57.280;27.070;2023-03-13T01:10:16;98999.23;;;-7.46;93.77
63691;BME280;49837;57.280;27.070;2023-03-13T01:11:27;99000.75;;;-7.47;93.92
63691;BME280;49837;57.280;27.070;2023-03-13T01:12:20;98999.0;;;-7.5;93.85
63691;BME280;49837;57.280;27.070;2023-03-13T01:13:20;98999.67;;;-7.48;94.1
63691;BME280;49837;57.280;27.070;2023-03-13T01:14:21;99001.19;;;-7.53;94.02
63691;BME280;49837;57.280;27.070;2023-03-13T01:15:21;99001.95;;;-7.58;93.99
63691;BME280;49837;57.280;27.070;2023-03-13T01:16:22;99006.39;;;-7.59;94.0
63691;BME280;49837;57.280;27.070;2023-03-13T01:17:22;99005.3;;;-7.6;93.69
63691;BME280;49837;57.280;27.070;2023-03-13T01:18:22;99012.35;;;-7.61;93.87
63691;BME280;49837;57.280;27.070;2023-03-13T01:19:23;99007.39;;;-7.64;93.67
63691;BME280;49837;57.280;27.070;2023-03-13T01:20:23;99008.42;;;-7.69;93.54
63691;BME280;49837;57.280;27.070;2023-03-13T01:21:24;99002.24;;;-7.73;93.41
63691;BME280;49837;57.280;27.070;2023-03-13T01:22:24;99010.42;;;-7.76;93.58
63691;BME280;49837;57.280;27.070;2023-03-13T01:23:25;99002.14;;;-7.8;93.97
63691;BME280;49837;57.280;27.070;2023-03-13T01:24:24;99007.7;;;-7.79;94.16
63691;BME280;49837;57.280;27.070;2023-03-13T01:25:25;99007.31;;;-7.74;94.45
63691;BME280;49837;57.280;27.070;2023-03-13T01:26:26;99008.53;;;-7.71;94.58
63691;BME280;49837;57.280;27.070;2023-03-13T01:27:26;99008.66;;;-7.69;94.6
63691;BME280;49837;57.280;27.070;2023-03-13T01:28:26;99010.61;;;-7.75;94.62
63691;BME280;49837;57.280;27.070;2023-03-13T01:29:26;99005.73;;;-7.76;94.68
63691;BME280;49837;57.280;27.070;2023-03-13T01:30:27;99006.16;;;-7.78;94.74
63691;BME280;49837;57.280;27.070;2023-03-13T01:31:32;99011.07;;;-7.82;94.5
63691;BME280;49837;57.280;27.070;2023-03-13T01:32:32;99012.83;;;-7.84;94.43
63691;BME280;49837;57.280;27.070;2023-03-13T01:33:30;99012.78;;;-7.86;94.33
63691;BME280;49837;57.280;27.070;2023-03-13T01:34:31;99015.36;;;-7.88;94.05
63691;BME280;49837;57.280;27.070;2023-03-13T01:35:31;99018.36;;;-7.89;94.26
63691;BME280;49837;57.280;27.070;2023-03-13T01:36:32;99020.44;;;-7.9;94.37
63691;BME280;49837;57.280;27.070;2023-03-13T01:37:32;99024.86;;;-7.91;94.21
63691;BME280;49837;57.280;27.070;2023-03-13T01:38:32;99024.33;;;-7.9;94.35
63691;BME280;49837;57.280;27.070;2023-03-13T01:39:33;99021.65;;;-8.06;93.67
63691;BME280;49837;57.280;27.070;2023-03-13T01:41:38;99022.14;;;-7.97;94.13
63691;BME280;49837;57.280;27.070;2023-03-13T01:43:38;99023.22;;;-7.86;94.9
63691;BME280;49837;57.280;27.070;2023-03-13T01:46:44;99018.25;;;-7.74;95.36
63691;BME280;49837;57.280;27.070;2023-03-13T01:47:44;99020.94;;;-7.64;95.52
63691;BME280;49837;57.280;27.070;2023-03-13T01:49:48;99024.74;;;-7.64;95.21
63691;BME280;49837;57.280;27.070;2023-03-13T01:50:46;99026.45;;;-7.7;94.88
63691;BME280;49837;57.280;27.070;2023-03-13T01:51:50;99024.89;;;-7.78;94.68
63691;BME280;49837;57.280;27.070;2023-03-13T01:52:49;99028.8;;;-7.79;94.74
63691;BME280;49837;57.280;27.070;2023-03-13T01:53:55;99028.8;;;-7.79;94.71
63691;BME280;49837;57.280;27.070;2023-03-13T01:56:00;99031.36;;;-7.71;94.94
63691;BME280;49837;57.280;27.070;2023-03-13T01:57:03;99037.22;;;-7.76;94.79
63691;BME280;49837;57.280;27.070;2023-03-13T01:58:02;99036.2;;;-7.81;94.89
63691;BME280;49837;57.280;27.070;2023-03-13T01:59:04;99041.05;;;-7.85;94.76
63691;BME280;49837;57.280;27.070;2023-03-13T02:01:05;99045.88;;;-7.92;94.48
63691;BME280;49837;57.280;27.070;2023-03-13T02:02:06;99047.47;;;-8.0;94.12
63691;BME280;49837;57.280;27.070;2023-03-13T02:03:08;99050.67;;;-8.0;94.28
63691;BME280;49837;57.280;27.070;2023-03-13T02:04:10;99048.01;;;-7.97;94.43
63691;BME280;49837;57.280;27.070;2023-03-13T02:05:08;99049.66;;;-7.96;94.51
63691;BME280;49837;57.280;27.070;2023-03-13T02:06:09;99045.86;;;-7.9;94.7
63691;BME280;49837;57.280;27.070;2023-03-13T02:09:17;99043.99;;;-7.8;94.91
63691;BME280;49837;57.280;27.070;2023-03-13T02:10:16;99044.83;;;-7.79;94.87
63691;BME280;49837;57.280;27.070;2023-03-13T02:13:20;99051.48;;;-7.56;95.05
63691;BME280;49837;57.280;27.070;2023-03-13T02:14:22;99051.76;;;-7.61;94.82
63691;BME280;49837;57.280;27.070;2023-03-13T02:15:23;99052.14;;;-7.63;94.83
63691;BME280;49837;57.280;27.070;2023-03-13T02:16:23;99059.27;;;-7.59;95.12
63691;BME280;49837;57.280;27.070;2023-03-13T02:17:24;99060.5;;;-7.55;95.12
63691;BME280;49837;57.280;27.070;2023-03-13T02:18:23;99062.53;;;-7.58;94.96
63691;BME280;49837;57.280;27.070;2023-03-13T02:20:26;99060.22;;;-7.49;94.88
63691;BME280;49837;57.280;27.070;2023-03-13T02:23:35;99066.62;;;-7.29;94.76
63691;BME280;49837;57.280;27.070;2023-03-13T02:24:45;99071.07;;;-7.23;94.63
63691;BME280;49837;57.280;27.070;2023-03-13T02:25:47;99069.47;;;-7.19;94.59
63691;BME280;49837;57.280;27.070;2023-03-13T02:26:40;99068.66;;;-7.19;94.79
63691;BME280;49837;57.280;27.070;2023-03-13T02:27:42;99066.42;;;-7.18;94.67
63691;BME280;49837;57.280;27.070;2023-03-13T02:28:41;99072.52;;;-7.17;94.54
63691;BME280;49837;57.280;27.070;2023-03-13T02:29:42;99074.38;;;-7.16;94.5
63691;BME280;49837;57.280;27.070;2023-03-13T02:30:44;99077.93;;;-7.1;94.56
63691;BME280;49837;57.280;27.070;2023-03-13T02:31:46;99072.09;;;-6.86;94.95
63691;BME280;49837;57.280;27.070;2023-03-13T02:32:45;99080.53;;;-6.75;94.75
63691;BME280;49837;57.280;27.070;2023-03-13T02:33:46;99077.85;;;-6.81;94.29
63691;BME280;49837;57.280;27.070;2023-03-13T02:34:47;99076.86;;;-6.83;94.3
63691;BME280;49837;57.280;27.070;2023-03-13T02:35:47;99079.81;;;-6.7;94.42
63691;BME280;49837;57.280;27.070;2023-03-13T02:36:48;99078.76;;;-6.63;94.2
63691;BME280;49837;57.280;27.070;2023-03-13T02:37:51;99083.65;;;-6.62;93.92
63691;BME280;49837;57.280;27.070;2023-03-13T02:38:55;99085.3;;;-6.68;93.79
63691;BME280;49837;57.280;27.070;2023-03-13T02:39:54;99089.2;;;-6.67;93.82
63691;BME280;49837;57.280;27.070;2023-03-13T02:40:54;99086.39;;;-6.7;93.62
63691;BME280;49837;57.280;27.070;2023-03-13T02:41:54;99090.86;;;-6.69;93.54
63691;BME280;49837;57.280;27.070;2023-03-13T02:42:55;99086.64;;;-6.74;93.28
63691;BME280;49837;57.280;27.070;2023-03-13T02:43:54;99092.67;;;-6.83;93.19
63691;BME280;49837;57.280;27.070;2023-03-13T02:44:56;99088.06;;;-6.86;93.25
63691;BME280;49837;57.280;27.070;2023-03-13T02:46:58;99082.48;;;-6.92;93.45
63691;BME280;49837;57.280;27.070;2023-03-13T02:47:58;99086.78;;;-6.95;93.51
63691;BME280;49837;57.280;27.070;2023-03-13T02:50:02;99087.21;;;-7.05;93.38
63691;BME280;49837;57.280;27.070;2023-03-13T02:51:05;99092.64;;;-7.05;93.43
63691;BME280;49837;57.280;27.070;2023-03-13T02:52:18;99086.88;;;-7.09;93.35
63691;BME280;49837;57.280;27.070;2023-03-13T02:53:06;99092.88;;;-7.13;93.29
63691;BME280;49837;57.280;27.070;2023-03-13T02:54:15;99091.61;;;-7.15;93.16
63691;BME280;49837;57.280;27.070;2023-03-13T02:55:14;99093.05;;;-7.16;93.14
63691;BME280;49837;57.280;27.070;2023-03-13T02:56:14;99095.59;;;-7.21;93.26
63691;BME280;49837;57.280;27.070;2023-03-13T02:57:13;99094.97;;;-7.2;93.3
63691;BME280;49837;57.280;27.070;2023-03-13T02:58:13;99093.7;;;-7.22;93.26
63691;BME280;49837;57.280;27.070;2023-03-13T02:59:14;99097.04;;;-7.32;93.07
63691;BME280;49837;57.280;27.070;2023-03-13T03:00:14;99103.36;;;-7.35;92.94
63691;BME280;49837;57.280;27.070;2023-03-13T03:01:14;99106.36;;;-7.38;92.91
63691;BME280;49837;57.280;27.070;2023-03-13T03:02:14;99103.15;;;-7.37;93.08
63691;BME280;49837;57.280;27.070;2023-03-13T03:03:15;99104.9;;;-7.34;93.11
63691;BME280;49837;57.280;27.070;2023-03-13T03:04:15;99107.95;;;-7.42;92.94
63691;BME280;49837;57.280;27.070;2023-03-13T03:05:15;99104.09;;;-7.44;92.99
63691;BME280;49837;57.280;27.070;2023-03-13T03:06:16;99111.28;;;-7.48;93.0
63691;BME280;49837;57.280;27.070;2023-03-13T03:07:16;99112.01;;;-7.55;92.83
63691;BME280;49837;57.280;27.070;2023-03-13T03:08:17;99114.44;;;-7.58;92.85
63691;BME280;49837;57.280;27.070;2023-03-13T03:09:18;99111.68;;;-7.64;92.82
63691;BME280;49837;57.280;27.070;2023-03-13T03:10:20;99114.47;;;-7.54;93.28
63691;BME280;49837;57.280;27.070;2023-03-13T03:11:18;99120.73;;;-7.56;93.17
63691;BME280;49837;57.280;27.070;2023-03-13T03:12:18;99122.29;;;-7.61;92.95
63691;BME280;49837;57.280;27.070;2023-03-13T03:13:19;99122.99;;;-7.62;92.82
63691;BME280;49837;57.280;27.070;2023-03-13T03:14:19;99118.97;;;-7.65;92.62
63691;BME280;49837;57.280;27.070;2023-03-13T03:15:19;99125.66;;;-7.72;92.56
63691;BME280;49837;57.280;27.070;2023-03-13T03:16:22;99128.44;;;-7.74;92.59
63691;BME280;49837;57.280;27.070;2023-03-13T03:17:20;99123.69;;;-7.76;92.46
63691;BME280;49837;57.280;27.070;2023-03-13T03:18:20;99127.54;;;-7.8;92.39
63691;BME280;49837;57.280;27.070;2023-03-13T03:19:21;99126.68;;;-7.76;92.59
63691;BME280;49837;57.280;27.070;2023-03-13T03:20:21;99121.82;;;-7.76;92.74
63691;BME280;49837;57.280;27.070;2023-03-13T03:21:22;99123.87;;;-7.82;92.81
63691;BME280;49837;57.280;27.070;2023-03-13T03:22:22;99124.3;;;-7.84;92.96
63691;BME280;49837;57.280;27.070;2023-03-13T03:23:22;99125.45;;;-7.83;92.95
63691;BME280;49837;57.280;27.070;2023-03-13T03:24:23;99126.08;;;-7.87;92.9
63691;BME280;49837;57.280;27.070;2023-03-13T03:25:23;99126.41;;;-7.78;93.09
63691;BME280;49837;57.280;27.070;2023-03-13T03:26:24;99125.36;;;-7.74;93.04
63691;BME280;49837;57.280;27.070;2023-03-13T03:27:24;99134.98;;;-7.8;92.9
63691;BME280;49837;57.280;27.070;2023-03-13T03:28:24;99135.02;;;-7.91;92.71
63691;BME280;49837;57.280;27.070;2023-03-13T03:29:33;99135.74;;;-7.94;92.71
63691;BME280;49837;57.280;27.070;2023-03-13T03:30:26;99141.33;;;-7.94;92.58
63691;BME280;49837;57.280;27.070;2023-03-13T03:31:26;99136.81;;;-7.99;92.37
63691;BME280;49837;57.280;27.070;2023-03-13T03:32:26;99143.39;;;-8.01;92.38
63691;BME280;49837;57.280;27.070;2023-03-13T03:33:27;99139.82;;;-8.04;92.46
63691;BME280;49837;57.280;27.070;2023-03-13T03:34:27;99139.41;;;-7.96;92.86
63691;BME280;49837;57.280;27.070;2023-03-13T03:35:27;99140.68;;;-7.94;92.83
63691;BME280;49837;57.280;27.070;2023-03-13T03:36:28;99142.14;;;-7.94;92.84
63691;BME280;49837;57.280;27.070;2023-03-13T03:37:28;99140.22;;;-7.93;92.74
63691;BME280;49837;57.280;27.070;2023-03-13T03:38:29;99141.23;;;-8.0;92.64
63691;BME280;49837;57.280;27.070;2023-03-13T03:39:29;99145.06;;;-8.02;92.76
63691;BME280;49837;57.280;27.070;2023-03-13T03:40:30;99139.83;;;-8.05;92.85
63691;BME280;49837;57.280;27.070;2023-03-13T03:41:30;99142.16;;;-8.08;92.94
63691;BME280;49837;57.280;27.070;2023-03-13T03:42:31;99143.98;;;-8.12;92.83
63691;BME280;49837;57.280;27.070;2023-03-13T03:43:33;99144.83;;;-8.08;92.89
63691;BME280;49837;57.280;27.070;2023-03-13T03:44:33;99143.7;;;-8.08;92.89
63691;BME280;49837;57.280;27.070;2023-03-13T03:45:32;99143.17;;;-8.12;92.71
63691;BME280;49837;57.280;27.070;2023-03-13T03:46:32;99147.59;;;-8.13;92.73
63691;BME280;49837;57.280;27.070;2023-03-13T03:47:33;99144.48;;;-8.09;92.73
63691;BME280;49837;57.280;27.070;2023-03-13T03:48:34;99142.07;;;-8.11;92.57
63691;BME280;49837;57.280;27.070;2023-03-13T03:49:34;99149.76;;;-8.19;92.37
63691;BME280;49837;57.280;27.070;2023-03-13T03:50:34;99153.06;;;-8.31;92.12
63691;BME280;49837;57.280;27.070;2023-03-13T03:51:35;99154.08;;;-8.33;92.05
63691;BME280;49837;57.280;27.070;2023-03-13T03:52:36;99153.65;;;-8.33;92.04
63691;BME280;49837;57.280;27.070;2023-03-13T03:53:36;99150.3;;;-8.29;91.95
63691;BME280;49837;57.280;27.070;2023-03-13T03:54:36;99152.09;;;-8.26;92.03
63691;BME280;49837;57.280;27.070;2023-03-13T03:55:39;99157.19;;;-8.32;91.97
63691;BME280;49837;57.280;27.070;2023-03-13T03:56:37;99155.49;;;-8.31;92.24
63691;BME280;49837;57.280;27.070;2023-03-13T03:57:38;99150.81;;;-8.33;92.07
63691;BME280;49837;57.280;27.070;2023-03-13T03:58:38;99154.2;;;-8.2;92.46
63691;BME280;49837;57.280;27.070;2023-03-13T03:59:38;99152.71;;;-8.07;92.5
63691;BME280;49837;57.280;27.070;2023-03-13T04:00:42;99152.61;;;-8.13;92.18
63691;BME280;49837;57.280;27.070;2023-03-13T04:01:40;99159.08;;;-8.22;92.07
63691;BME280;49837;57.280;27.070;2023-03-13T04:02:40;99158.88;;;-8.26;91.95
63691;BME280;49837;57.280;27.070;2023-03-13T04:03:41;99155.75;;;-8.33;91.75
63691;BME280;49837;57.280;27.070;2023-03-13T04:04:41;99157.22;;;-8.36;91.84
63691;BME280;49837;57.280;27.070;2023-03-13T04:05:42;99158.36;;;-8.4;91.82
63691;BME280;49837;57.280;27.070;2023-03-13T04:06:42;99159.17;;;-8.41;92.07
63691;BME280;49837;57.280;27.070;2023-03-13T04:07:42;99158.36;;;-8.41;92.06
63691;BME280;49837;57.280;27.070;2023-03-13T04:08:43;99161.89;;;-8.36;92.13
63691;BME280;49837;57.280;27.070;2023-03-13T04:09:43;99158.25;;;-8.36;92.25
63691;BME280;49837;57.280;27.070;2023-03-13T04:10:44;99162.36;;;-8.4;92.08
63691;BME280;49837;57.280;27.070;2023-03-13T04:11:44;99159.32;;;-8.44;92.07
63691;BME280;49837;57.280;27.070;2023-03-13T04:12:45;99164.61;;;-8.43;91.96
63691;BME280;49837;57.280;27.070;2023-03-13T04:13:45;99166.65;;;-8.45;91.9
63691;BME280;49837;57.280;27.070;2023-03-13T04:14:46;99168.77;;;-8.48;92.03
63691;BME280;49837;57.280;27.070;2023-03-13T04:15:46;99175.16;;;-8.48;92.18
63691;BME280;49837;57.280;27.070;2023-03-13T04:16:47;99178.06;;;-8.54;92.03
63691;BME280;49837;57.280;27.070;2023-03-13T04:17:47;99176.27;;;-8.56;91.97
63691;BME280;49837;57.280;27.070;2023-03-13T04:18:47;99179.01;;;-8.55;91.96
63691;BME280;49837;57.280;27.070;2023-03-13T04:19:48;99185.95;;;-8.52;91.77
63691;BME280;49837;57.280;27.070;2023-03-13T04:20:49;99187.12;;;-8.53;91.43
63691;BME280;49837;57.280;27.070;2023-03-13T04:21:49;99187.48;;;-8.58;91.36
63691;BME280;49837;57.280;27.070;2023-03-13T04:22:49;99188.56;;;-8.56;91.42
63691;BME280;49837;57.280;27.070;2023-03-13T04:23:50;99191.39;;;-8.57;91.24
63691;BME280;49837;57.280;27.070;2023-03-13T04:24:50;99185.48;;;-8.62;91.18
63691;BME280;49837;57.280;27.070;2023-03-13T04:25:51;99189.38;;;-8.64;91.36
63691;BME280;49837;57.280;27.070;2023-03-13T04:26:51;99189.8;;;-8.66;91.34
63691;BME280;49837;57.280;27.070;2023-03-13T04:27:52;99188.17;;;-8.64;91.39
63691;BME280;49837;57.280;27.070;2023-03-13T04:28:52;99191.89;;;-8.64;91.3
63691;BME280;49837;57.280;27.070;2023-03-13T04:29:53;99190.44;;;-8.58;91.5
63691;BME280;49837;57.280;27.070;2023-03-13T04:30:53;99188.25;;;-8.59;91.81
63691;BME280;49837;57.280;27.070;2023-03-13T04:31:54;99189.2;;;-8.49;91.94
63691;BME280;49837;57.280;27.070;2023-03-13T04:32:54;99190.05;;;-8.5;91.57
63691;BME280;49837;57.280;27.070;2023-03-13T04:33:56;99185.66;;;-8.57;91.4
63691;BME280;49837;57.280;27.070;2023-03-13T04:34:55;99187.34;;;-8.57;91.26
63691;BME280;49837;57.280;27.070;2023-03-13T04:35:55;99188.35;;;-8.51;91.47
63691;BME280;49837;57.280;27.070;2023-03-13T04:36:56;99189.88;;;-8.48;91.69
63691;BME280;49837;57.280;27.070;2023-03-13T04:37:56;99190.84;;;-8.47;91.63
63691;BME280;49837;57.280;27.070;2023-03-13T04:38:57;99188.44;;;-8.5;91.52
63691;BME280;49837;57.280;27.070;2023-03-13T04:39:57;99195.45;;;-8.54;91.33
63691;BME280;49837;57.280;27.070;2023-03-13T04:40:58;99196.14;;;-8.6;91.33
63691;BME280;49837;57.280;27.070;2023-03-13T04:41:59;99191.63;;;-8.62;91.48
63691;BME280;49837;57.280;27.070;2023-03-13T04:42:59;99194.14;;;-8.62;91.55
63691;BME280;49837;57.280;27.070;2023-03-13T04:43:59;99194.61;;;-8.6;91.89
63691;BME280;49837;57.280;27.070;2023-03-13T04:45:00;99196.31;;;-8.55;91.99
63691;BME280;49837;57.280;27.070;2023-03-13T04:46:00;99197.25;;;-8.5;91.85
63691;BME280;49837;57.280;27.070;2023-03-13T04:47:01;99200.98;;;-8.52;91.61
63691;BME280;49837;57.280;27.070;2023-03-13T04:48:02;99208.78;;;-8.51;91.69
63691;BME280;49837;57.280;27.070;2023-03-13T04:49:01;99203.52;;;-8.52;91.46
63691;BME280;49837;57.280;27.070;2023-03-13T04:50:03;99205.38;;;-8.57;91.46
63691;BME280;49837;57.280;27.070;2023-03-13T04:51:03;99205.73;;;-8.61;91.41
63691;BME280;49837;57.280;27.070;2023-03-13T04:52:03;99204.2;;;-8.6;91.48
63691;BME280;49837;57.280;27.070;2023-03-13T04:53:03;99204.3;;;-8.53;91.57
63691;BME280;49837;57.280;27.070;2023-03-13T04:54:04;99205.93;;;-8.55;91.51
63691;BME280;49837;57.280;27.070;2023-03-13T04:55:05;99205.41;;;-8.47;91.46
63691;BME280;49837;57.280;27.070;2023-03-13T04:56:05;99206.08;;;-8.41;91.07
63691;BME280;49837;57.280;27.070;2023-03-13T04:57:05;99206.63;;;-8.44;90.99
63691;BME280;49837;57.280;27.070;2023-03-13T04:58:06;99206.56;;;-8.35;91.0
63691;BME280;49837;57.280;27.070;2023-03-13T04:59:06;99211.84;;;-8.37;90.59
63691;BME280;49837;57.280;27.070;2023-03-13T05:00:07;99218.21;;;-8.46;90.42
63691;BME280;49837;57.280;27.070;2023-03-13T05:01:07;99215.34;;;-8.47;90.5
63691;BME280;49837;57.280;27.070;2023-03-13T05:02:10;99215.23;;;-8.43;90.59
63691;BME280;49837;57.280;27.070;2023-03-13T05:03:08;99214.54;;;-8.36;90.71
63691;BME280;49837;57.280;27.070;2023-03-13T05:04:09;99211.91;;;-8.4;90.3
63691;BME280;49837;57.280;27.070;2023-03-13T05:05:10;99215.39;;;-8.43;90.16
63691;BME280;49837;57.280;27.070;2023-03-13T05:06:10;99213.27;;;-8.44;90.35
63691;BME280;49837;57.280;27.070;2023-03-13T05:07:10;99216.8;;;-8.48;90.28
63691;BME280;49837;57.280;27.070;2023-03-13T05:08:10;99219.23;;;-8.47;90.36
63691;BME280;49837;57.280;27.070;2023-03-13T05:09:11;99218.38;;;-8.46;90.43
63691;BME280;49837;57.280;27.070;2023-03-13T05:10:11;99216.61;;;-8.38;90.38
63691;BME280;49837;57.280;27.070;2023-03-13T05:11:12;99222.91;;;-8.35;90.21
63691;BME280;49837;57.280;27.070;2023-03-13T05:12:12;99226.36;;;-8.33;90.08
63691;BME280;49837;57.280;27.070;2023-03-13T05:13:13;99225.25;;;-8.3;89.99
63691;BME280;49837;57.280;27.070;2023-03-13T05:14:13;99225.75;;;-8.37;89.61
63691;BME280;49837;57.280;27.070;2023-03-13T05:15:13;99225.67;;;-8.38;89.88
63691;BME280;49837;57.280;27.070;2023-03-13T05:16:14;99223.44;;;-8.42;89.97
63691;BME280;49837;57.280;27.070;2023-03-13T05:17:14;99227.8;;;-8.42;89.87
63691;BME280;49837;57.280;27.070;2023-03-13T05:18:14;99228.44;;;-8.45;89.62
63691;BME280;49837;57.280;27.070;2023-03-13T05:19:17;99228.33;;;-8.5;89.53
63691;BME280;49837;57.280;27.070;2023-03-13T05:20:16;99228.35;;;-8.45;89.56
63691;BME280;49837;57.280;27.070;2023-03-13T05:21:16;99232.62;;;-8.38;89.5
63691;BME280;49837;57.280;27.070;2023-03-13T05:22:16;99232.05;;;-8.35;89.32
63691;BME280;49837;57.280;27.070;2023-03-13T05:23:17;99234.33;;;-8.32;89.36
63691;BME280;49837;57.280;27.070;2023-03-13T05:24:17;99234.23;;;-8.27;89.4
63691;BME280;49837;57.280;27.070;2023-03-13T05:25:17;99239.45;;;-8.21;89.25
63691;BME280;49837;57.280;27.070;2023-03-13T05:26:18;99240.06;;;-8.32;88.66
63691;BME280;49837;57.280;27.070;2023-03-13T05:27:19;99239.41;;;-8.36;88.81
63691;BME280;49837;57.280;27.070;2023-03-13T05:28:19;99236.48;;;-8.3;89.06
63691;BME280;49837;57.280;27.070;2023-03-13T05:29:20;99238.58;;;-8.28;89.3
63691;BME280;49837;57.280;27.070;2023-03-13T05:30:20;99242.64;;;-8.19;89.37
63691;BME280;49837;57.280;27.070;2023-03-13T05:31:20;99248.69;;;-8.12;89.09
63691;BME280;49837;57.280;27.070;2023-03-13T05:32:21;99245.88;;;-8.14;88.81
63691;BME280;49837;57.280;27.070;2023-03-13T05:33:21;99245.94;;;-8.12;88.85
63691;BME280;49837;57.280;27.070;2023-03-13T05:34:21;99244.58;;;-8.09;88.93
63691;BME280;49837;57.280;27.070;2023-03-13T05:35:22;99245.94;;;-8.12;88.57